Strona główna
METAR-TAF:

METAR-TAF

Lotnisko :

Port lotniczy Bamako

Bamako, Mali

Szerokość geograficzna: 12-32N, Długość geograficzna: 007-57W, wysokość: 380 m

Aktualna obserwacja pogody

Raport powstał 25 minut temu, godzina 21:30 UTC
Wiatr 2 kt od północno-północny wschód
Temperatura 22°C
Wilgotność 35%
Ciśnienie 1018 hPa
Widzialność 10 km lub więcej
Brak chmur poniżej 1500 m i brak chmur cumulonimbus

METAR: GABS 092130Z 03002KT CAVOK 22/06 Q1018 NOSIG

czas: 21:55 (21:55 UTC)

Prognoza

Raport powstał 4 godziny i 55 minut temu, godzina 17:00 UTC
Prognoza ważna od 09 godzina 18 UTC do 10 godzina 24 UTC
Wiatr 6 kt od wschodnio-północny wschód
Widzialność 10 km lub więcej
Brak chmur poniżej 1500 m i brak chmur cumulonimbus

TAF: GABS 091700Z 0918/1024 06006KT CAVOK

Obserwacja i prognoza pogody dla ponad 4000 lotnisk (raport METAR i TAF).

Dostępne stacje oznaczono żółtymi i czerwonymi punktami na mapie.

Najedź kursorem aby zobaczyć nazwę stacji.

Kliknij aby zobaczyć obserwacje i prognozy pogody.

Aby zmienić mapę: kliknij na zielony przycisk z czarnym krzyżykiem, aby powiększyć; na zielony przycisk z myślnikiem, aby pomniejszyć; na zielone strzałki, aby przejść do map sąsiednich.


METAR-TAF: